METAR (LHKE):

LHKE 201845Z 28004KT 9999 SCT027 OVC083 14/13 Q1011 TEMPO -RA RMK BLU

TAF (LHKE):

TAF TAF LHKE 101415Z 1015/1124 25006KT CAVOK BECMG 1018/1021 6000 NSC TEMPO 1021/1024 5000 BR

PRESSURE (LHKE):
1011 hp (QNH)
TEMPERATURE (LHKE):
14 °C

Traffic

Pages

Pages|Hits |Unique

  • Last 24 hours: 66
  • Last 7 days: 1,379
  • Last 30 days: 6,915
  • Online now: 0

Életképek

Életképek

109

108

107

106

105

104

103

102

101

100

099

098

097

096

095

094

093

092

091

090

089

088

087

086

085

084

083

082

081

080

079

078

077

076

075

074

073

072

071

070

069

068

067

066

065

064

063

062

061

060

059

058

057

056

055

054

053

052

051

050

049

048

047

046

045

044

043

042

041

040

039

038

037

036

035

034

033

032

031

030

029

028

027

026

025

024

023

022

021

020

019

018

017

016

015

014

013

012

011

010

009

008

007

006

005

004

003

002

001

Admin | RSS | Webmester: Lantos István